createdAt,value
2022-09-27T00:01:13.359Z,11.55
2022-09-27T00:03:40.917Z,11.00
2022-09-27T00:06:12.335Z,10.57
2022-09-27T00:08:39.318Z,10.43
2022-09-27T00:11:10.537Z,10.88
2022-09-27T00:13:37.437Z,11.32
2022-09-27T00:16:07.602Z,11.05
2022-09-27T00:18:35.182Z,11.18
2022-09-27T00:21:11.666Z,11.77
2022-09-27T00:23:39.449Z,11.60
2022-09-27T00:26:08.759Z,12.07
2022-09-27T00:28:35.892Z,11.68
2022-09-27T00:31:03.128Z,11.77
2022-09-27T00:33:30.102Z,12.30
2022-09-27T00:36:05.519Z,12.45
2022-09-27T00:38:33.013Z,12.52
2022-09-27T00:41:00.088Z,13.10
2022-09-27T00:43:27.060Z,12.70
2022-09-27T00:45:59.789Z,13.30
2022-09-27T00:48:31.737Z,12.65
2022-09-27T00:51:03.417Z,13.77
2022-09-27T00:53:51.695Z,13.18
2022-09-27T00:56:27.832Z,13.27
2022-09-27T00:59:04.115Z,13.05
2022-09-27T01:01:31.310Z,13.55
2022-09-27T01:04:12.302Z,13.90
2022-09-27T01:06:40.712Z,13.45
2022-09-27T01:09:10.987Z,13.55
2022-09-27T01:12:34.111Z,14.52
2022-09-27T01:15:40.587Z,14.48
2022-09-27T01:18:17.125Z,14.38
2022-09-27T01:21:20.516Z,14.43
2022-09-27T01:24:15.230Z,15.32
2022-09-27T01:27:23.397Z,15.93
2022-09-27T01:30:21.329Z,14.75
2022-09-27T01:33:36.045Z,14.70
2022-09-27T01:36:28.987Z,14.70
2022-09-27T01:39:21.313Z,15.05
2022-09-27T01:42:32.063Z,14.82
2022-09-27T01:45:36.454Z,14.80
2022-09-27T01:48:17.814Z,15.82
2022-09-27T01:50:56.038Z,15.48
2022-09-27T01:53:38.696Z,16.08
2022-09-27T01:56:37.424Z,15.73
2022-09-27T01:59:18.902Z,16.45
2022-09-27T02:01:54.873Z,16.00
2022-09-27T02:04:33.333Z,16.10
2022-09-27T02:07:24.833Z,15.73
2022-09-27T02:10:03.428Z,15.45
2022-09-27T02:12:48.979Z,16.02
2022-09-27T02:15:16.691Z,15.80
2022-09-27T02:18:11.061Z,14.23
2022-09-27T02:20:50.632Z,15.43
2022-09-27T02:23:43.847Z,14.70
2022-09-27T02:26:24.760Z,14.75
2022-09-27T02:29:07.027Z,13.20
2022-09-27T02:31:42.618Z,14.27
2022-09-27T02:34:24.311Z,14.13
2022-09-27T02:36:53.552Z,14.63
2022-09-27T02:39:21.322Z,13.85
2022-09-27T02:41:58.364Z,13.80
2022-09-27T02:44:27.419Z,14.43
2022-09-27T02:47:21.938Z,13.98
2022-09-27T02:50:33.672Z,14.50
2022-09-27T02:53:30.253Z,14.90
2022-09-27T02:56:25.919Z,15.40
2022-09-27T02:59:39.794Z,13.48
2022-09-27T03:03:08.130Z,14.15
2022-09-27T03:05:48.105Z,14.23
2022-09-27T03:08:16.895Z,15.75
2022-09-27T03:10:43.935Z,15.30
2022-09-27T03:13:12.321Z,13.57
2022-09-27T03:15:39.808Z,14.38
2022-09-27T03:18:07.211Z,13.93
2022-09-27T03:20:46.109Z,15.25
2022-09-27T03:23:20.525Z,13.55
2022-09-27T03:25:48.650Z,13.45
2022-09-27T03:28:15.866Z,14.38
2022-09-27T03:30:46.572Z,13.77
2022-09-27T03:33:23.010Z,14.45
2022-09-27T03:35:54.719Z,14.48
2022-09-27T03:38:21.631Z,13.98
2022-09-27T03:40:48.799Z,14.52
2022-09-27T03:43:16.186Z,14.65
2022-09-27T03:45:45.731Z,14.75
2022-09-27T03:48:12.648Z,15.02
2022-09-27T03:50:39.770Z,14.27
2022-09-27T03:53:06.914Z,14.75
2022-09-27T03:55:33.915Z,14.55
2022-09-27T03:58:01.234Z,14.48
2022-09-27T04:00:28.573Z,13.90
2022-09-27T04:02:56.483Z,13.48
2022-09-27T04:05:25.338Z,13.30
2022-09-27T04:07:59.348Z,12.90
2022-09-27T04:10:26.897Z,14.52
2022-09-27T04:12:54.342Z,13.32
2022-09-27T04:15:23.629Z,13.30
2022-09-27T04:17:51.072Z,14.38
2022-09-27T04:20:33.969Z,12.90
2022-09-27T04:23:05.219Z,13.27
2022-09-27T04:25:33.119Z,13.57
2022-09-27T04:28:06.254Z,13.90
2022-09-27T04:30:34.130Z,13.93
2022-09-27T04:33:13.461Z,14.43
2022-09-27T04:36:17.071Z,13.60
2022-09-27T04:39:02.520Z,14.52
2022-09-27T04:41:30.198Z,14.15
2022-09-27T04:43:59.569Z,15.25
2022-09-27T04:46:31.650Z,14.73
2022-09-27T04:49:00.260Z,14.75
2022-09-27T04:51:28.671Z,15.15
2022-09-27T04:53:58.220Z,15.68
2022-09-27T04:56:34.235Z,15.07
2022-09-27T04:59:06.795Z,17.20
2022-09-27T05:01:35.539Z,18.27
2022-09-27T05:04:05.381Z,17.30
2022-09-27T05:06:34.860Z,16.85
2022-09-27T05:09:07.711Z,16.00
2022-09-27T05:11:45.045Z,16.48
2022-09-27T05:14:34.901Z,17.30
2022-09-27T05:17:18.723Z,16.20
2022-09-27T05:20:05.478Z,16.08
2022-09-27T05:22:40.448Z,16.52
2022-09-27T05:25:08.500Z,17.02
2022-09-27T05:27:35.482Z,16.33
2022-09-27T05:30:02.355Z,16.98
2022-09-27T05:32:50.303Z,17.23
2022-09-27T05:35:26.574Z,16.95
2022-09-27T05:37:56.844Z,16.92
2022-09-27T05:40:41.921Z,18.20
2022-09-27T05:43:10.707Z,17.38
2022-09-27T05:45:38.263Z,19.00
2022-09-27T05:48:06.826Z,19.65
2022-09-27T05:50:40.474Z,20.00
2022-09-27T05:53:07.538Z,19.38
2022-09-27T05:55:34.942Z,18.50
2022-09-27T05:58:08.520Z,18.85
2022-09-27T06:00:44.165Z,19.25
2022-09-27T06:03:31.036Z,19.85
2022-09-27T06:06:26.592Z,19.27
2022-09-27T06:08:56.652Z,19.00
2022-09-27T06:11:27.652Z,19.33
2022-09-27T06:13:54.857Z,18.80
2022-09-27T06:16:22.818Z,17.50
2022-09-27T06:18:49.832Z,17.88
2022-09-27T06:21:17.717Z,18.15
2022-09-27T06:23:54.259Z,18.67
2022-09-27T06:26:27.367Z,17.90
2022-09-27T06:29:12.646Z,17.30
2022-09-27T06:31:46.262Z,17.15
2022-09-27T06:34:33.099Z,17.45
2022-09-27T06:37:00.030Z,17.33
2022-09-27T06:39:28.584Z,17.52
2022-09-27T06:42:24.589Z,16.20
2022-09-27T06:45:04.588Z,17.33
2022-09-27T06:48:13.074Z,15.95
2022-09-27T06:50:47.892Z,15.63
2022-09-27T06:53:17.021Z,15.13
2022-09-27T06:55:44.258Z,14.40
2022-09-27T06:58:30.941Z,14.82
2022-09-27T07:01:20.552Z,14.85
2022-09-27T07:04:20.046Z,13.38
2022-09-27T07:07:07.205Z,12.55
2022-09-27T07:09:40.282Z,11.90
2022-09-27T07:12:07.658Z,12.13
2022-09-27T07:14:35.322Z,11.48
2022-09-27T07:17:03.804Z,11.77
2022-09-27T07:19:38.596Z,13.35
2022-09-27T07:22:07.328Z,11.75
2022-09-27T07:24:34.421Z,12.38
2022-09-27T07:27:02.002Z,13.25
2022-09-27T07:29:28.953Z,12.57
2022-09-27T07:31:56.145Z,13.73
2022-09-27T07:34:23.060Z,11.98
2022-09-27T07:36:51.369Z,13.38
2022-09-27T07:39:18.685Z,14.18
2022-09-27T07:41:45.819Z,13.23
2022-09-27T07:44:16.340Z,12.80
2022-09-27T07:46:59.844Z,12.43
2022-09-27T07:49:46.716Z,13.27
2022-09-27T07:52:31.229Z,12.55
2022-09-27T07:55:18.439Z,13.15
2022-09-27T07:58:07.173Z,13.80
2022-09-27T08:00:34.255Z,13.82
2022-09-27T08:03:10.787Z,13.00
2022-09-27T08:05:38.726Z,13.65
2022-09-27T08:08:05.951Z,13.52
2022-09-27T08:10:33.987Z,13.75
2022-09-27T08:13:05.428Z,13.80
2022-09-27T08:15:36.970Z,13.65
2022-09-27T08:18:04.195Z,13.48
2022-09-27T08:21:00.572Z,13.82
2022-09-27T08:23:47.483Z,13.15
2022-09-27T08:26:21.813Z,12.73
2022-09-27T08:29:15.012Z,12.55
2022-09-27T08:31:52.112Z,13.05
2022-09-27T08:34:20.118Z,12.80
2022-09-27T08:36:47.084Z,13.15
2022-09-27T08:39:14.028Z,12.80
2022-09-27T08:41:57.278Z,12.95
2022-09-27T08:44:44.962Z,12.45
2022-09-27T08:47:27.895Z,11.55
2022-09-27T08:50:28.344Z,12.60
2022-09-27T08:53:29.438Z,11.85
2022-09-27T08:56:00.277Z,13.15
2022-09-27T08:58:59.659Z,12.57
2022-09-27T09:01:32.297Z,12.00
2022-09-27T09:04:04.431Z,12.43
2022-09-27T09:07:09.784Z,13.25
2022-09-27T09:10:45.706Z,12.75
2022-09-27T09:13:51.006Z,12.13
2022-09-27T09:16:56.317Z,12.77
2022-09-27T09:20:00.728Z,12.77
2022-09-27T09:23:12.071Z,13.05
2022-09-27T09:26:15.115Z,12.43
2022-09-27T09:29:00.472Z,12.38
2022-09-27T09:32:03.129Z,12.80
2022-09-27T09:35:24.000Z,12.63
2022-09-27T09:37:56.276Z,13.27
2022-09-27T09:40:35.945Z,13.40
2022-09-27T09:43:18.096Z,14.05
2022-09-27T09:45:51.912Z,14.88
2022-09-27T09:48:46.652Z,15.00
2022-09-27T09:51:28.460Z,15.10
2022-09-27T09:54:03.067Z,15.18
2022-09-27T09:56:42.157Z,16.58
2022-09-27T09:59:18.822Z,15.10
2022-09-27T10:01:49.217Z,15.88
2022-09-27T10:04:21.387Z,15.45
2022-09-27T10:06:49.466Z,15.85
2022-09-27T10:09:23.014Z,15.43
2022-09-27T10:12:10.545Z,15.15
2022-09-27T10:14:38.485Z,15.57
2022-09-27T10:17:12.205Z,15.63
2022-09-27T10:19:39.840Z,15.00
2022-09-27T10:22:32.721Z,16.40
2022-09-27T10:25:09.559Z,16.40
2022-09-27T10:28:02.836Z,16.77
2022-09-27T10:30:36.673Z,16.85
2022-09-27T10:33:19.799Z,16.00
2022-09-27T10:35:53.546Z,16.02
2022-09-27T10:38:35.070Z,16.63
2022-09-27T10:41:39.650Z,17.15
2022-09-27T10:44:32.716Z,15.48
2022-09-27T10:47:22.719Z,15.63
2022-09-27T10:53:22.654Z,14.75
2022-09-27T10:55:59.328Z,15.32
2022-09-27T10:58:34.999Z,14.82
2022-09-27T11:01:10.108Z,15.05
2022-09-27T11:04:00.397Z,15.38
2022-09-27T11:06:37.723Z,15.48
2022-09-27T11:09:48.456Z,16.38
2022-09-27T11:12:20.652Z,16.05
2022-09-27T11:15:17.677Z,15.13
2022-09-27T11:18:13.034Z,15.55
2022-09-27T11:20:52.625Z,15.40
2022-09-27T11:23:34.424Z,14.95
2022-09-27T11:27:05.825Z,15.38
2022-09-27T11:30:04.069Z,15.82
2022-09-27T11:33:42.241Z,13.65
2022-09-27T11:36:26.437Z,13.93
2022-09-27T11:39:23.321Z,13.55
2022-09-27T11:42:18.441Z,13.95
2022-09-27T11:46:14.169Z,12.23
2022-09-27T11:49:10.324Z,13.27
2022-09-27T11:52:03.553Z,13.25
2022-09-27T11:55:02.827Z,14.20
2022-09-27T11:57:47.207Z,17.20
2022-09-27T12:00:19.145Z,12.10
2022-09-27T12:03:26.636Z,11.73
2022-09-27T12:06:18.343Z,12.05
2022-09-27T12:09:02.921Z,12.30
2022-09-27T12:11:58.943Z,12.23
2022-09-27T12:14:37.571Z,12.38
2022-09-27T12:17:24.228Z,12.10
2022-09-27T12:19:56.237Z,10.82
2022-09-27T12:23:02.511Z,11.32
2022-09-27T12:25:54.757Z,11.40
2022-09-27T12:28:44.232Z,11.30
2022-09-27T12:31:30.938Z,10.90
2022-09-27T12:34:19.504Z,10.50
2022-09-27T12:37:43.642Z,10.30
2022-09-27T12:40:26.017Z,10.32
2022-09-27T12:43:09.099Z,9.40
2022-09-27T12:46:34.198Z,10.75
2022-09-27T12:49:23.688Z,10.70
2022-09-27T12:51:59.720Z,10.63
2022-09-27T12:54:39.086Z,10.10
2022-09-27T12:57:29.752Z,9.73
2022-09-27T13:00:14.894Z,9.82
2022-09-27T13:03:32.677Z,9.98
2022-09-27T13:06:17.665Z,10.13
2022-09-27T13:09:31.232Z,10.20
2022-09-27T13:12:19.077Z,9.35
2022-09-27T13:15:15.017Z,9.35
2022-09-27T13:17:42.532Z,8.52
2022-09-27T13:20:31.822Z,8.90
2022-09-27T13:23:18.021Z,9.18
2022-09-27T13:26:00.177Z,8.68
2022-09-27T13:28:59.285Z,8.98
2022-09-27T13:31:54.786Z,8.73
2022-09-27T13:34:48.475Z,8.77
2022-09-27T13:37:29.308Z,9.70
2022-09-27T13:40:31.665Z,8.30
2022-09-27T13:43:10.450Z,8.73
2022-09-27T13:47:00.164Z,8.35
2022-09-27T13:49:38.685Z,8.85
2022-09-27T13:52:27.229Z,8.90
2022-09-27T13:55:40.274Z,8.15
2022-09-27T13:58:41.994Z,8.40
2022-09-27T14:01:47.025Z,7.82
2022-09-27T14:04:26.284Z,8.32
2022-09-27T14:07:00.151Z,8.00
2022-09-27T14:09:33.301Z,8.13
2022-09-27T14:12:33.000Z,7.43
2022-09-27T14:15:04.568Z,7.35
2022-09-27T14:17:33.177Z,7.80
2022-09-27T14:20:03.113Z,6.97
2022-09-27T14:22:31.060Z,7.55
2022-09-27T14:25:17.872Z,7.10
2022-09-27T14:27:47.830Z,6.68
2022-09-27T14:30:37.638Z,6.55
2022-09-27T14:33:34.315Z,7.03
2022-09-27T14:36:49.461Z,7.00
2022-09-27T14:39:31.296Z,7.95
2022-09-27T14:42:00.762Z,7.80
2022-09-27T14:44:28.594Z,8.30
2022-09-27T14:47:28.366Z,7.65
2022-09-27T14:50:18.986Z,7.05
2022-09-27T14:52:47.465Z,7.30
2022-09-27T14:55:22.153Z,8.57
2022-09-27T14:58:00.655Z,8.90
2022-09-27T15:00:32.424Z,9.00
2022-09-27T15:03:03.322Z,7.85
2022-09-27T15:05:33.274Z,7.82
2022-09-27T15:08:06.559Z,7.43
2022-09-27T15:10:36.080Z,8.50
2022-09-27T15:13:06.056Z,8.15
2022-09-27T15:15:39.883Z,7.38
2022-09-27T15:18:42.177Z,7.95
2022-09-27T15:21:29.435Z,8.18
2022-09-27T15:23:56.812Z,8.70
2022-09-27T15:26:42.577Z,8.90
2022-09-27T15:29:24.968Z,9.82
2022-09-27T15:32:07.139Z,9.57
2022-09-27T15:34:35.723Z,8.90
2022-09-27T15:37:05.113Z,8.98
2022-09-27T15:39:40.535Z,9.95
2022-09-27T15:42:17.427Z,11.20
2022-09-27T15:44:58.241Z,12.50
2022-09-27T15:47:38.698Z,12.75
2022-09-27T15:50:31.613Z,10.40
2022-09-27T15:52:58.613Z,9.95
2022-09-27T15:55:28.231Z,9.38
2022-09-27T15:58:01.998Z,8.75
2022-09-27T16:00:29.832Z,9.65
2022-09-27T16:02:57.069Z,9.82
2022-09-27T16:05:24.056Z,9.40
2022-09-27T16:07:51.744Z,9.63
2022-09-27T16:10:30.697Z,10.05
2022-09-27T16:12:57.653Z,10.65
2022-09-27T16:15:24.707Z,11.38
2022-09-27T16:17:51.617Z,10.68
2022-09-27T16:20:25.127Z,11.00
2022-09-27T16:22:56.114Z,14.88
2022-09-27T16:25:23.618Z,14.15
2022-09-27T16:27:52.477Z,14.10
2022-09-27T16:30:20.842Z,11.93
2022-09-27T16:32:49.174Z,11.98
2022-09-27T16:35:19.222Z,11.43
2022-09-27T16:37:46.545Z,11.73
2022-09-27T16:40:15.235Z,11.20
2022-09-27T16:42:43.276Z,11.57
2022-09-27T16:45:14.570Z,11.70
2022-09-27T16:47:44.454Z,11.40
2022-09-27T16:50:32.198Z,13.38
2022-09-27T16:53:00.266Z,10.75
2022-09-27T16:55:29.383Z,10.30
2022-09-27T16:57:59.081Z,9.57
2022-09-27T17:00:27.175Z,9.98
2022-09-27T17:02:54.730Z,10.50
2022-09-27T17:05:23.030Z,10.65
2022-09-27T17:07:52.029Z,10.98
2022-09-27T17:10:20.574Z,11.25
2022-09-27T17:12:48.172Z,11.30
2022-09-27T17:15:16.618Z,11.45
2022-09-27T17:17:45.279Z,11.88
2022-09-27T17:20:12.514Z,11.25
2022-09-27T17:22:39.392Z,11.65
2022-09-27T17:25:06.964Z,10.98
2022-09-27T17:27:33.908Z,12.02
2022-09-27T17:30:00.897Z,12.93
2022-09-27T17:32:27.811Z,14.18
2022-09-27T17:34:55.954Z,14.43
2022-09-27T17:37:22.929Z,16.00
2022-09-27T17:39:49.807Z,15.30
2022-09-27T17:42:18.941Z,15.80
2022-09-27T17:44:46.506Z,16.42
2022-09-27T17:47:32.288Z,16.33
2022-09-27T17:50:34.299Z,17.05
2022-09-27T17:53:01.186Z,17.65
2022-09-27T17:55:28.149Z,17.92
2022-09-27T17:57:55.121Z,17.35
2022-09-27T18:00:22.197Z,18.08
2022-09-27T18:02:49.217Z,18.63
2022-09-27T18:05:18.353Z,21.30
2022-09-27T18:07:45.271Z,21.85
2022-09-27T18:10:12.220Z,18.77
2022-09-27T18:12:39.594Z,17.05
2022-09-27T18:15:08.082Z,16.50
2022-09-27T18:17:36.355Z,17.08
2022-09-27T18:20:04.569Z,16.88
2022-09-27T18:22:31.674Z,15.63
2022-09-27T18:24:58.588Z,15.82
2022-09-27T18:27:25.481Z,15.50
2022-09-27T18:29:52.755Z,16.58
2022-09-27T18:35:04.583Z,14.32
2022-09-27T18:37:31.452Z,13.30
2022-09-27T18:39:58.325Z,12.90
2022-09-27T18:42:25.209Z,14.70
2022-09-27T18:44:52.070Z,14.07
2022-09-27T18:47:19.298Z,15.40
2022-09-27T18:49:46.237Z,16.33
2022-09-27T18:52:13.145Z,16.55
2022-09-27T18:54:41.011Z,16.15
2022-09-27T18:57:07.912Z,19.65
2022-09-27T18:59:34.962Z,19.73
2022-09-27T19:02:01.993Z,20.75
2022-09-27T19:04:28.930Z,18.52
2022-09-27T19:06:56.910Z,18.88
2022-09-27T19:09:26.688Z,17.40
2022-09-27T19:11:53.883Z,15.90
2022-09-27T19:14:23.355Z,15.43
2022-09-27T19:16:50.739Z,15.23
2022-09-27T19:19:19.500Z,16.58
2022-09-27T19:21:47.270Z,18.77
2022-09-27T19:24:15.687Z,17.67
2022-09-27T19:26:42.853Z,19.13
2022-09-27T19:29:13.804Z,17.30
2022-09-27T19:31:42.254Z,15.50
2022-09-27T19:34:09.275Z,14.65
2022-09-27T19:36:36.169Z,14.18
2022-09-27T19:39:03.390Z,13.73
2022-09-27T19:41:30.307Z,12.27
2022-09-27T19:43:57.315Z,12.68
2022-09-27T19:46:26.561Z,12.85
2022-09-27T19:48:55.255Z,11.82
2022-09-27T19:51:25.336Z,10.25
2022-09-27T19:53:53.554Z,11.93
2022-09-27T19:56:22.038Z,11.75
2022-09-27T19:58:49.568Z,10.82
2022-09-27T20:01:23.015Z,10.88
2022-09-27T20:03:53.176Z,11.45
2022-09-27T20:06:21.779Z,10.02
2022-09-27T20:08:49.005Z,9.82
2022-09-27T20:11:22.084Z,10.57
2022-09-27T20:13:50.517Z,9.90
2022-09-27T20:16:23.846Z,9.40
2022-09-27T20:18:56.745Z,10.15
2022-09-27T20:21:32.422Z,9.82
2022-09-27T20:24:01.957Z,10.18
2022-09-27T20:26:31.007Z,10.30
2022-09-27T20:29:00.408Z,10.32
2022-09-27T20:31:37.092Z,10.05
2022-09-27T20:34:13.669Z,10.93
2022-09-27T20:36:44.249Z,10.18
2022-09-27T20:39:15.750Z,10.07
2022-09-27T20:41:46.762Z,11.68
2022-09-27T20:44:19.779Z,11.43
2022-09-27T20:46:47.793Z,10.98
2022-09-27T20:49:18.527Z,10.93
2022-09-27T20:51:51.281Z,12.52
2022-09-27T20:54:18.759Z,12.10
2022-09-27T20:56:47.577Z,11.18
2022-09-27T20:59:20.747Z,10.82
2022-09-27T21:01:50.393Z,9.93
2022-09-27T21:04:19.163Z,10.70
2022-09-27T21:06:46.483Z,10.18
2022-09-27T21:09:18.748Z,10.60
2022-09-27T21:11:51.930Z,10.88
2022-09-27T21:14:19.060Z,11.00
2022-09-27T21:16:46.361Z,12.88
2022-09-27T21:19:13.943Z,13.63
2022-09-27T21:21:40.987Z,12.07
2022-09-27T21:24:07.873Z,12.65
2022-09-27T21:26:34.889Z,13.32
2022-09-27T21:29:07.600Z,14.25
2022-09-27T21:31:35.900Z,17.67
2022-09-27T21:34:06.180Z,17.45
2022-09-27T21:36:37.323Z,13.80
2022-09-27T21:39:08.925Z,14.27
2022-09-27T21:41:36.196Z,13.38
2022-09-27T21:44:05.362Z,13.38
2022-09-27T21:46:32.412Z,13.50
2022-09-27T21:49:04.007Z,13.55
2022-09-27T21:51:36.602Z,13.15
2022-09-27T21:54:08.370Z,12.05
2022-09-27T21:56:38.929Z,12.40
2022-09-27T21:59:07.782Z,12.40
2022-09-27T22:01:35.466Z,12.32
2022-09-27T22:04:05.609Z,12.45
2022-09-27T22:06:36.396Z,13.40
2022-09-27T22:09:09.230Z,12.10
2022-09-27T22:11:44.439Z,11.55
2022-09-27T22:14:12.922Z,13.10
2022-09-27T22:16:39.982Z,12.20
2022-09-27T22:19:07.237Z,12.55
2022-09-27T22:21:37.189Z,12.18
2022-09-27T22:24:08.501Z,11.65
2022-09-27T22:26:38.665Z,12.35
2022-09-27T22:29:07.156Z,12.02
2022-09-27T22:31:34.694Z,12.18
2022-09-27T22:34:05.287Z,12.50
2022-09-27T22:36:33.829Z,11.95
2022-09-27T22:39:01.121Z,12.75
2022-09-27T22:41:29.466Z,13.65
2022-09-27T22:43:56.549Z,14.00
2022-09-27T22:46:23.635Z,13.20
2022-09-27T22:48:50.799Z,12.55
2022-09-27T22:51:18.768Z,12.50
2022-09-27T22:53:46.001Z,12.07
2022-09-27T22:56:17.210Z,12.45
2022-09-27T22:58:45.136Z,13.50
2022-09-27T23:01:21.853Z,12.70
2022-09-27T23:03:52.559Z,12.77
2022-09-27T23:06:21.783Z,14.02
2022-09-27T23:08:49.901Z,13.18
2022-09-27T23:11:20.220Z,13.00
2022-09-27T23:13:49.140Z,13.13
2022-09-27T23:16:20.294Z,13.15
2022-09-27T23:18:47.912Z,13.15
2022-09-27T23:21:17.037Z,12.55
2022-09-27T23:23:46.529Z,14.18
2022-09-27T23:26:16.184Z,15.52
2022-09-27T23:28:43.964Z,15.82
2022-09-27T23:31:17.060Z,14.02
2022-09-27T23:33:48.920Z,14.68
2022-09-27T23:36:19.323Z,14.93
2022-09-27T23:38:48.555Z,14.35
2022-09-27T23:41:17.141Z,13.57
2022-09-27T23:43:44.627Z,15.55
2022-09-27T23:46:12.392Z,14.90
2022-09-27T23:48:40.024Z,14.32
2022-09-27T23:51:10.610Z,14.60
2022-09-27T23:53:38.955Z,13.15
2022-09-27T23:56:15.255Z,12.52
2022-09-27T23:58:45.500Z,12.00
